createdAt,value
2017-05-18T00:00:31.853Z,22.1
2017-05-18T00:01:39.923Z,22.1
2017-05-18T00:02:48.006Z,22.0
2017-05-18T00:03:56.091Z,22.1
2017-05-18T00:05:04.179Z,22.1
2017-05-18T00:06:12.265Z,22.0
2017-05-18T00:07:20.348Z,22.0
2017-05-18T00:08:28.435Z,22.0
2017-05-18T00:09:36.523Z,22.0
2017-05-18T00:10:44.610Z,22.1
2017-05-18T00:11:52.695Z,22.0
2017-05-18T00:13:00.810Z,22.1
2017-05-18T00:14:08.884Z,22.0
2017-05-18T00:15:16.957Z,21.9
2017-05-18T00:16:25.042Z,22.0
2017-05-18T00:17:33.128Z,21.9
2017-05-18T00:18:41.215Z,22.0
2017-05-18T00:19:49.302Z,21.9
2017-05-18T00:20:57.388Z,22.0
2017-05-18T00:22:05.475Z,22.0
2017-05-18T00:23:13.562Z,21.9
2017-05-18T00:24:21.649Z,22.0
2017-05-18T00:25:29.737Z,22.0
2017-05-18T00:26:37.823Z,21.9
2017-05-18T00:27:46.261Z,22.0
2017-05-18T00:28:53.992Z,21.9
2017-05-18T00:30:02.122Z,22.0
2017-05-18T00:31:10.169Z,21.9
2017-05-18T00:32:18.257Z,21.9
2017-05-18T00:33:26.342Z,21.9
2017-05-18T00:34:34.450Z,21.9
2017-05-18T00:35:42.514Z,22.0
2017-05-18T00:36:50.612Z,21.9
2017-05-18T00:37:58.691Z,21.9
2017-05-18T00:39:06.775Z,22.0
2017-05-18T00:40:14.862Z,21.9
2017-05-18T00:41:22.951Z,21.9
2017-05-18T00:42:31.036Z,21.8
2017-05-18T00:43:39.148Z,21.9
2017-05-18T00:44:47.211Z,21.9
2017-05-18T00:45:55.301Z,21.9
2017-05-18T00:47:03.458Z,21.9
2017-05-18T00:48:11.474Z,21.9
2017-05-18T00:49:19.582Z,21.9
2017-05-18T00:50:27.645Z,21.9
2017-05-18T00:51:35.733Z,21.9
2017-05-18T00:52:43.816Z,21.9
2017-05-18T00:53:51.916Z,21.9
2017-05-18T00:54:59.996Z,21.9
2017-05-18T00:56:08.082Z,21.9
2017-05-18T00:57:16.168Z,21.8
2017-05-18T00:58:24.252Z,21.9
2017-05-18T00:59:32.343Z,21.9
2017-05-18T01:00:40.425Z,21.9
2017-05-18T01:01:48.519Z,21.9
2017-05-18T01:02:56.721Z,21.8
2017-05-18T01:04:04.687Z,21.8
2017-05-18T01:05:12.775Z,21.8
2017-05-18T01:06:20.856Z,21.8
2017-05-18T01:07:28.947Z,21.8
2017-05-18T01:08:37.034Z,21.8
2017-05-18T01:09:45.120Z,21.8
2017-05-18T01:10:53.205Z,21.8
2017-05-18T01:12:01.294Z,21.9
2017-05-18T01:13:09.380Z,21.8
2017-05-18T01:14:17.469Z,21.8
2017-05-18T01:15:25.549Z,21.8
2017-05-18T01:16:33.640Z,21.8
2017-05-18T01:17:41.784Z,21.8
2017-05-18T01:18:49.813Z,21.8
2017-05-18T01:19:57.902Z,21.8
2017-05-18T01:21:05.991Z,21.8
2017-05-18T01:22:14.070Z,21.8
2017-05-18T01:23:22.158Z,21.8
2017-05-18T01:24:30.242Z,21.8
2017-05-18T01:25:38.338Z,21.8
2017-05-18T01:26:46.427Z,21.8
2017-05-18T01:27:54.511Z,21.8
2017-05-18T01:29:02.606Z,21.7
2017-05-18T01:30:10.693Z,21.7
2017-05-18T01:31:18.774Z,21.7
2017-05-18T01:32:26.862Z,21.7
2017-05-18T01:33:34.955Z,21.7
2017-05-18T01:34:43.052Z,21.8
2017-05-18T01:35:51.133Z,21.7
2017-05-18T01:36:59.214Z,21.7
2017-05-18T01:38:07.299Z,21.7
2017-05-18T01:39:15.385Z,21.7
2017-05-18T01:40:23.470Z,21.7
2017-05-18T01:41:31.554Z,21.7
2017-05-18T01:42:39.642Z,21.7
2017-05-18T01:43:47.733Z,21.7
2017-05-18T01:44:55.819Z,21.8
2017-05-18T01:46:03.905Z,21.7
2017-05-18T01:47:11.998Z,21.6
2017-05-18T01:48:20.076Z,21.7
2017-05-18T01:49:28.163Z,21.7
2017-05-18T01:50:36.250Z,21.7
2017-05-18T01:51:44.359Z,21.7
2017-05-18T01:52:52.423Z,21.7
2017-05-18T01:54:00.507Z,21.6
2017-05-18T01:55:08.593Z,21.7
2017-05-18T01:56:16.683Z,21.6
2017-05-18T01:57:24.770Z,21.6
2017-05-18T01:58:32.856Z,21.7
2017-05-18T01:59:40.938Z,21.6
2017-05-18T02:00:49.023Z,21.6
2017-05-18T02:01:57.126Z,21.7
2017-05-18T02:03:05.204Z,21.7
2017-05-18T02:04:13.293Z,21.7
2017-05-18T02:05:21.386Z,21.7
2017-05-18T02:06:29.471Z,21.7
2017-05-18T02:07:37.556Z,21.6
2017-05-18T02:08:45.641Z,21.6
2017-05-18T02:09:53.733Z,21.6
2017-05-18T02:11:01.819Z,21.6
2017-05-18T02:12:09.908Z,21.6
2017-05-18T02:13:17.996Z,21.6
2017-05-18T02:14:26.093Z,21.7
2017-05-18T02:15:34.171Z,21.7
2017-05-18T02:16:42.263Z,21.8
2017-05-18T02:17:50.354Z,21.7
2017-05-18T02:18:58.441Z,21.6
2017-05-18T02:20:06.535Z,21.7
2017-05-18T02:21:14.611Z,21.6
2017-05-18T02:22:22.699Z,21.6
2017-05-18T02:23:30.782Z,21.6
2017-05-18T02:24:38.873Z,21.6
2017-05-18T02:25:46.960Z,21.7
2017-05-18T02:26:55.045Z,21.6
2017-05-18T02:28:03.149Z,21.6
2017-05-18T02:29:11.221Z,21.6
2017-05-18T02:30:19.303Z,21.6
2017-05-18T02:31:27.386Z,21.6
2017-05-18T02:32:35.478Z,21.7
2017-05-18T02:33:43.559Z,21.6
2017-05-18T02:34:51.654Z,21.6
2017-05-18T02:35:59.735Z,21.6
2017-05-18T02:37:07.821Z,21.7
2017-05-18T02:38:15.908Z,21.7
2017-05-18T02:39:23.997Z,21.6
2017-05-18T02:40:32.083Z,21.6
2017-05-18T02:41:40.169Z,21.7
2017-05-18T02:42:48.283Z,21.6
2017-05-18T02:43:56.341Z,21.7
2017-05-18T02:45:04.426Z,21.6
2017-05-18T02:46:12.510Z,21.6
2017-05-18T02:47:20.602Z,21.6
2017-05-18T02:48:28.682Z,21.6
2017-05-18T02:49:36.779Z,21.6
2017-05-18T02:50:44.870Z,21.6
2017-05-18T02:51:52.958Z,21.6
2017-05-18T02:53:01.041Z,21.6
2017-05-18T02:54:09.127Z,21.5
2017-05-18T02:55:17.216Z,21.5
2017-05-18T02:56:25.301Z,21.5
2017-05-18T02:57:33.389Z,21.5
2017-05-18T02:58:41.473Z,21.5
2017-05-18T02:59:49.560Z,21.5
2017-05-18T03:00:57.646Z,21.5
2017-05-18T03:02:05.732Z,21.5
2017-05-18T03:03:13.821Z,21.5
2017-05-18T03:04:21.905Z,21.5
2017-05-18T03:05:29.989Z,21.6
2017-05-18T03:06:38.081Z,21.5
2017-05-18T03:07:46.162Z,21.5
2017-05-18T03:08:54.254Z,21.5
2017-05-18T03:10:02.343Z,21.5
2017-05-18T03:11:10.424Z,21.6
2017-05-18T03:12:18.508Z,21.5
2017-05-18T03:13:26.593Z,21.5
2017-05-18T03:14:34.683Z,21.5
2017-05-18T03:15:42.771Z,21.5
2017-05-18T03:16:50.856Z,21.6
2017-05-18T03:17:58.940Z,21.4
2017-05-18T03:19:07.028Z,21.4
2017-05-18T03:20:15.109Z,21.4
2017-05-18T03:21:23.200Z,21.4
2017-05-18T03:22:31.290Z,21.5
2017-05-18T03:23:39.378Z,21.5
2017-05-18T03:24:47.466Z,21.4
2017-05-18T03:25:55.549Z,21.4
2017-05-18T03:27:03.637Z,21.5
2017-05-18T03:28:11.720Z,21.5
2017-05-18T03:29:19.809Z,21.5
2017-05-18T03:30:27.893Z,21.5
2017-05-18T03:31:35.981Z,21.4
2017-05-18T03:32:44.067Z,21.5
2017-05-18T03:33:52.155Z,21.4
2017-05-18T03:35:00.242Z,21.5
2017-05-18T03:36:08.336Z,21.4
2017-05-18T03:37:16.419Z,21.4
2017-05-18T03:38:24.507Z,21.5
2017-05-18T03:39:32.596Z,21.4
2017-05-18T03:40:40.682Z,21.4
2017-05-18T03:41:48.766Z,21.4
2017-05-18T03:42:56.855Z,21.4
2017-05-18T03:44:04.937Z,21.4
2017-05-18T03:45:13.025Z,21.4
2017-05-18T03:46:21.112Z,21.4
2017-05-18T03:47:29.199Z,21.4
2017-05-18T03:48:37.287Z,21.4
2017-05-18T03:49:45.370Z,21.4
2017-05-18T03:50:53.459Z,21.4
2017-05-18T03:52:01.545Z,21.4
2017-05-18T03:53:10.305Z,21.4
2017-05-18T03:54:17.722Z,21.4
2017-05-18T03:55:25.813Z,21.4
2017-05-18T03:56:33.891Z,21.4
2017-05-18T03:57:41.983Z,21.4
2017-05-18T03:58:50.103Z,21.4
2017-05-18T03:59:58.153Z,21.4
2017-05-18T04:01:06.234Z,21.4
2017-05-18T04:02:14.327Z,21.4
2017-05-18T04:03:22.411Z,21.4
2017-05-18T04:04:30.493Z,21.4
2017-05-18T04:05:38.577Z,21.4
2017-05-18T04:06:46.669Z,21.4
2017-05-18T04:07:54.921Z,21.4
2017-05-18T04:09:02.843Z,21.3
2017-05-18T04:10:11.076Z,21.4
2017-05-18T04:11:19.011Z,21.4
2017-05-18T04:12:27.101Z,21.4
2017-05-18T04:13:35.184Z,21.3
2017-05-18T04:14:43.275Z,21.4
2017-05-18T04:15:51.369Z,21.4
2017-05-18T04:16:59.441Z,21.3
2017-05-18T04:18:07.536Z,21.3
2017-05-18T04:19:15.617Z,21.4
2017-05-18T04:20:23.703Z,21.4
2017-05-18T04:21:31.793Z,21.3
2017-05-18T04:22:39.876Z,21.3
2017-05-18T04:23:47.965Z,21.4
2017-05-18T04:24:56.051Z,21.4
2017-05-18T04:26:04.286Z,21.3
2017-05-18T04:27:12.220Z,21.3
2017-05-18T04:28:20.306Z,21.3
2017-05-18T04:29:28.392Z,21.4
2017-05-18T04:30:36.481Z,21.3
2017-05-18T04:31:44.568Z,21.3
2017-05-18T04:32:52.735Z,21.3
2017-05-18T04:34:00.804Z,21.3
2017-05-18T04:35:08.903Z,21.3
2017-05-18T04:36:17.017Z,21.3
2017-05-18T04:37:25.007Z,21.2
2017-05-18T04:38:33.226Z,21.2
2017-05-18T04:39:41.171Z,21.3
2017-05-18T04:40:49.262Z,21.2
2017-05-18T04:41:57.344Z,21.2
2017-05-18T04:43:05.429Z,21.2
2017-05-18T04:44:15.022Z,21.2
2017-05-18T04:45:21.604Z,21.1
2017-05-18T04:46:29.690Z,21.1
2017-05-18T04:47:37.831Z,21.2
2017-05-18T04:48:45.859Z,21.2
2017-05-18T04:49:54.029Z,21.1
2017-05-18T04:51:02.035Z,21.2
2017-05-18T04:52:10.119Z,21.2
2017-05-18T04:53:18.208Z,21.2
2017-05-18T04:54:26.293Z,21.2
2017-05-18T04:55:34.373Z,21.1
2017-05-18T04:56:42.461Z,21.2
2017-05-18T04:57:50.979Z,21.1
2017-05-18T04:58:58.635Z,21.1
2017-05-18T05:00:06.730Z,21.1
2017-05-18T05:01:14.806Z,21.1
2017-05-18T05:02:22.897Z,21.1
2017-05-18T05:03:30.978Z,21.1
2017-05-18T05:04:39.067Z,21.1
2017-05-18T05:05:47.152Z,21.1
2017-05-18T05:06:55.234Z,21.1
2017-05-18T05:08:03.331Z,21.1
2017-05-18T05:09:11.413Z,21.0
2017-05-18T05:10:19.498Z,21.1
2017-05-18T05:11:27.587Z,21.1
2017-05-18T05:12:35.671Z,21.0
2017-05-18T05:13:43.757Z,21.1
2017-05-18T05:14:51.857Z,21.0
2017-05-18T05:15:59.935Z,21.1
2017-05-18T05:17:08.020Z,21.1
2017-05-18T05:18:16.107Z,21.1
2017-05-18T05:19:25.296Z,21.1
2017-05-18T05:20:32.271Z,21.1
2017-05-18T05:21:40.430Z,21.0
2017-05-18T05:22:48.447Z,21.1
2017-05-18T05:23:56.541Z,21.1
2017-05-18T05:25:04.622Z,21.1
2017-05-18T05:26:12.709Z,21.0
2017-05-18T05:27:20.790Z,21.1
2017-05-18T05:28:28.931Z,21.1
2017-05-18T05:29:36.965Z,21.0
2017-05-18T05:30:45.049Z,21.0
2017-05-18T05:31:53.159Z,21.0
2017-05-18T05:33:01.218Z,21.0
2017-05-18T05:34:09.303Z,21.0
2017-05-18T05:35:17.388Z,21.0
2017-05-18T05:36:25.477Z,21.0
2017-05-18T05:37:33.566Z,21.1
2017-05-18T05:38:41.678Z,21.0
2017-05-18T05:39:49.738Z,21.0
2017-05-18T05:40:57.823Z,21.0
2017-05-18T05:42:05.908Z,21.0
2017-05-18T05:43:13.990Z,21.0
2017-05-18T05:44:22.079Z,21.0
2017-05-18T05:45:30.165Z,21.1
2017-05-18T05:46:38.250Z,21.0
2017-05-18T05:47:46.338Z,21.0
2017-05-18T05:48:54.420Z,20.9
2017-05-18T05:50:02.511Z,20.9
2017-05-18T05:51:10.617Z,20.9
2017-05-18T05:52:18.687Z,20.9
2017-05-18T05:53:26.778Z,21.0
2017-05-18T05:54:34.859Z,20.9
2017-05-18T05:55:42.949Z,20.9
2017-05-18T05:56:51.039Z,20.9
2017-05-18T05:57:59.127Z,21.0
2017-05-18T05:59:07.213Z,20.9
2017-05-18T06:00:15.302Z,20.9
2017-05-18T06:01:23.386Z,20.9
2017-05-18T06:02:31.475Z,20.9
2017-05-18T06:03:39.566Z,20.9
2017-05-18T06:04:47.659Z,20.9
2017-05-18T06:05:55.735Z,20.9
2017-05-18T06:07:03.823Z,20.9
2017-05-18T06:08:11.909Z,20.9
2017-05-18T06:09:19.997Z,20.9
2017-05-18T06:10:28.080Z,20.9
2017-05-18T06:11:36.169Z,20.9
2017-05-18T06:12:44.256Z,20.9
2017-05-18T06:13:52.342Z,20.9
2017-05-18T06:15:00.424Z,20.9
2017-05-18T06:16:08.511Z,20.9
2017-05-18T06:17:16.598Z,20.9
2017-05-18T06:18:24.682Z,20.9
2017-05-18T06:19:32.770Z,20.9
2017-05-18T06:20:40.852Z,20.9
2017-05-18T06:21:48.943Z,20.9
2017-05-18T06:22:57.026Z,20.9
2017-05-18T06:24:05.114Z,20.9
2017-05-18T06:25:13.201Z,20.9
2017-05-18T06:26:21.849Z,20.8
2017-05-18T06:27:29.746Z,20.8
2017-05-18T06:28:37.458Z,20.9
2017-05-18T06:29:45.549Z,20.9
2017-05-18T06:30:53.632Z,20.8
2017-05-18T06:32:01.725Z,20.9
2017-05-18T06:33:09.812Z,20.9
2017-05-18T06:34:17.925Z,20.8
2017-05-18T06:35:25.995Z,20.8
2017-05-18T06:36:34.066Z,20.9
2017-05-18T06:37:42.161Z,20.8
2017-05-18T06:38:50.250Z,20.8
2017-05-18T06:39:58.336Z,20.8
2017-05-18T06:41:06.462Z,20.8
2017-05-18T06:42:14.503Z,20.8
2017-05-18T06:43:22.593Z,20.8
2017-05-18T06:44:30.679Z,20.8
2017-05-18T06:45:38.770Z,20.8
2017-05-18T06:46:46.852Z,20.9
2017-05-18T06:47:54.934Z,20.8
2017-05-18T06:49:03.035Z,20.8
2017-05-18T06:50:11.109Z,20.8
2017-05-18T06:51:19.194Z,20.8
2017-05-18T06:52:27.281Z,20.8
2017-05-18T06:53:35.373Z,20.8
2017-05-18T06:54:43.453Z,20.8
2017-05-18T06:55:51.541Z,20.8
2017-05-18T06:56:59.622Z,20.9
2017-05-18T06:58:07.707Z,20.8
2017-05-18T06:59:15.795Z,20.9
2017-05-18T07:00:23.881Z,20.8
2017-05-18T07:01:31.966Z,20.8
2017-05-18T07:02:40.054Z,20.8
2017-05-18T07:03:48.138Z,20.8
2017-05-18T07:04:56.232Z,20.8
2017-05-18T07:06:04.307Z,20.8
2017-05-18T07:07:12.395Z,20.8
2017-05-18T07:08:20.483Z,20.8
2017-05-18T07:09:28.569Z,20.8
2017-05-18T07:10:36.654Z,20.8
2017-05-18T07:11:44.749Z,20.8
2017-05-18T07:12:52.834Z,20.8
2017-05-18T07:14:00.921Z,20.8
2017-05-18T07:15:09.008Z,20.9
2017-05-18T07:16:17.092Z,20.8
2017-05-18T07:17:25.187Z,20.9
2017-05-18T07:18:33.269Z,20.8
2017-05-18T07:19:41.358Z,20.9
2017-05-18T07:20:49.443Z,20.9
2017-05-18T07:21:57.532Z,20.9
2017-05-18T07:23:05.615Z,20.9
2017-05-18T07:24:13.700Z,20.9
2017-05-18T07:25:21.790Z,20.9
2017-05-18T07:26:29.874Z,20.9
2017-05-18T07:27:37.998Z,20.9
2017-05-18T07:28:46.048Z,20.9
2017-05-18T07:29:54.135Z,20.9
2017-05-18T07:31:02.221Z,20.9
2017-05-18T07:32:10.305Z,20.9
2017-05-18T07:33:18.391Z,20.9
2017-05-18T07:34:26.481Z,20.9
2017-05-18T07:35:34.567Z,20.9
2017-05-18T07:36:42.648Z,20.9
2017-05-18T07:37:50.736Z,20.9
2017-05-18T07:38:58.823Z,20.9
2017-05-18T07:40:06.906Z,20.9
2017-05-18T07:41:15.020Z,20.9
2017-05-18T07:42:23.079Z,21.0
2017-05-18T07:43:31.167Z,20.9
2017-05-18T07:44:39.340Z,20.9
2017-05-18T07:45:47.349Z,20.9
2017-05-18T07:46:55.425Z,21.0
2017-05-18T07:48:03.512Z,20.9
2017-05-18T07:49:11.600Z,20.9
2017-05-18T07:50:19.687Z,21.0
2017-05-18T07:51:27.780Z,21.0
2017-05-18T07:52:35.865Z,20.9
2017-05-18T07:53:43.953Z,21.0
2017-05-18T07:54:52.046Z,21.0
2017-05-18T07:56:00.127Z,21.0
2017-05-18T07:57:08.216Z,21.0
2017-05-18T07:58:16.303Z,21.0
2017-05-18T07:59:24.385Z,21.0
2017-05-18T08:00:32.472Z,20.9
2017-05-18T08:01:40.565Z,21.0
2017-05-18T08:02:48.642Z,21.0
2017-05-18T08:03:56.733Z,20.9
2017-05-18T08:05:04.820Z,21.0
2017-05-18T08:06:12.907Z,21.0
2017-05-18T08:07:20.993Z,21.1
2017-05-18T08:08:29.079Z,21.1
2017-05-18T08:09:37.192Z,21.0
2017-05-18T08:10:45.253Z,21.0
2017-05-18T08:11:53.335Z,21.0
2017-05-18T08:13:01.425Z,21.0
2017-05-18T08:14:09.506Z,21.0
2017-05-18T08:15:17.599Z,21.1
2017-05-18T08:16:25.678Z,21.1
2017-05-18T08:17:33.770Z,21.0
2017-05-18T08:18:41.852Z,21.0
2017-05-18T08:19:49.942Z,21.0
2017-05-18T08:20:58.040Z,21.1
2017-05-18T08:22:06.121Z,21.0
2017-05-18T08:23:14.211Z,21.0
2017-05-18T08:24:22.299Z,21.0
2017-05-18T08:25:30.382Z,21.1
2017-05-18T08:26:38.470Z,21.0
2017-05-18T08:27:46.558Z,21.0
2017-05-18T08:28:54.647Z,21.1
2017-05-18T08:30:02.733Z,21.0
2017-05-18T08:31:10.826Z,21.1
2017-05-18T08:32:18.922Z,21.0
2017-05-18T08:33:27.008Z,21.1
2017-05-18T08:34:35.095Z,21.1
2017-05-18T08:35:43.178Z,21.0
2017-05-18T08:36:51.263Z,21.1
2017-05-18T08:37:59.347Z,21.1
2017-05-18T08:39:07.445Z,21.1
2017-05-18T08:40:15.616Z,21.1
2017-05-18T08:41:23.609Z,21.1
2017-05-18T08:42:31.692Z,21.1
2017-05-18T08:43:39.784Z,21.1
2017-05-18T08:44:47.862Z,21.1
2017-05-18T08:45:55.954Z,21.1
2017-05-18T08:47:04.044Z,21.1
2017-05-18T08:48:12.126Z,21.2
2017-05-18T08:49:20.209Z,21.2
2017-05-18T08:50:28.296Z,21.2
2017-05-18T08:51:36.383Z,21.2
2017-05-18T08:52:44.471Z,21.1
2017-05-18T08:53:52.558Z,21.2
2017-05-18T08:55:00.639Z,21.2
2017-05-18T08:56:08.751Z,21.2
2017-05-18T08:57:16.809Z,21.1
2017-05-18T08:58:24.898Z,21.2
2017-05-18T08:59:32.989Z,21.1
2017-05-18T09:00:41.071Z,21.3
2017-05-18T09:01:49.163Z,21.2
2017-05-18T09:02:57.248Z,21.3
2017-05-18T09:04:05.331Z,21.3
2017-05-18T09:05:13.418Z,21.2
2017-05-18T09:06:21.529Z,21.3
2017-05-18T09:07:29.588Z,21.3
2017-05-18T09:08:37.687Z,21.3
2017-05-18T09:09:45.764Z,21.4
2017-05-18T09:10:53.848Z,21.3
2017-05-18T09:12:01.936Z,21.3
2017-05-18T09:13:10.026Z,21.3
2017-05-18T09:14:18.108Z,21.4
2017-05-18T09:15:26.203Z,21.3
2017-05-18T09:16:34.286Z,21.3
2017-05-18T09:17:42.377Z,21.4
2017-05-18T09:18:50.463Z,21.3
2017-05-18T09:19:58.549Z,21.4
2017-05-18T09:21:06.633Z,21.4
2017-05-18T09:22:14.718Z,21.4
2017-05-18T09:23:22.804Z,21.4
2017-05-18T09:24:30.895Z,21.3
2017-05-18T09:25:38.977Z,21.4
2017-05-18T09:26:47.066Z,21.4
2017-05-18T09:27:55.156Z,21.4
2017-05-18T09:29:03.235Z,21.4
2017-05-18T09:30:11.323Z,21.4
2017-05-18T09:31:19.413Z,21.4
2017-05-18T09:32:27.501Z,21.4
2017-05-18T09:33:35.584Z,21.4
2017-05-18T09:34:43.669Z,21.4
2017-05-18T09:35:51.764Z,21.4
2017-05-18T09:36:59.847Z,21.4
2017-05-18T09:38:07.929Z,21.4
2017-05-18T09:39:16.019Z,21.4
2017-05-18T09:40:24.104Z,21.5
2017-05-18T09:41:32.195Z,21.4
2017-05-18T09:42:40.278Z,21.4
2017-05-18T09:43:48.366Z,21.5
2017-05-18T09:44:56.451Z,21.5
2017-05-18T09:46:04.542Z,21.5
2017-05-18T09:47:12.630Z,21.5
2017-05-18T09:48:20.716Z,21.5
2017-05-18T09:49:28.808Z,21.5
2017-05-18T09:50:36.890Z,21.5
2017-05-18T09:51:44.977Z,21.6
2017-05-18T09:52:53.066Z,21.5
2017-05-18T09:54:01.147Z,21.5
2017-05-18T09:55:09.235Z,21.6
2017-05-18T09:56:17.321Z,21.6
2017-05-18T09:57:25.406Z,21.6
2017-05-18T09:58:33.496Z,21.6
2017-05-18T09:59:41.580Z,21.6
2017-05-18T10:00:49.673Z,21.6
2017-05-18T10:01:57.762Z,21.6
2017-05-18T10:03:05.849Z,21.6
2017-05-18T10:04:13.934Z,21.6
2017-05-18T10:05:22.022Z,21.6
2017-05-18T10:06:30.109Z,21.6
2017-05-18T10:07:38.195Z,21.7
2017-05-18T10:08:46.283Z,21.7
2017-05-18T10:09:54.370Z,21.6
2017-05-18T10:11:02.505Z,21.6
2017-05-18T10:12:10.544Z,21.7
2017-05-18T10:13:18.630Z,21.7
2017-05-18T10:14:26.716Z,21.7
2017-05-18T10:15:34.804Z,21.5
2017-05-18T10:16:42.891Z,21.6
2017-05-18T10:17:50.991Z,21.6
2017-05-18T10:18:59.068Z,21.6
2017-05-18T10:20:07.153Z,21.6
2017-05-18T10:21:15.245Z,21.7
2017-05-18T10:22:23.355Z,21.7
2017-05-18T10:23:31.426Z,21.7
2017-05-18T10:24:39.505Z,21.7
2017-05-18T10:25:47.592Z,21.6
2017-05-18T10:26:55.681Z,21.7
2017-05-18T10:28:03.768Z,21.6
2017-05-18T10:29:11.857Z,21.7
2017-05-18T10:30:19.944Z,21.6
2017-05-18T10:31:28.029Z,21.7
2017-05-18T10:32:36.116Z,21.7
2017-05-18T10:33:44.203Z,21.7
2017-05-18T10:34:52.292Z,21.7
2017-05-18T10:36:00.380Z,21.8
2017-05-18T10:37:08.464Z,21.7
2017-05-18T10:38:16.553Z,21.7
2017-05-18T10:39:24.738Z,21.8
2017-05-18T10:40:32.730Z,21.7
2017-05-18T10:41:40.820Z,21.8
2017-05-18T10:42:48.931Z,21.8
2017-05-18T10:43:56.994Z,21.8
2017-05-18T10:45:05.079Z,21.7
2017-05-18T10:46:13.167Z,21.8
2017-05-18T10:47:21.255Z,21.8
2017-05-18T10:48:29.341Z,21.8
2017-05-18T10:49:37.429Z,21.8
2017-05-18T10:50:45.515Z,21.8
2017-05-18T10:51:53.601Z,21.8
2017-05-18T10:53:01.691Z,21.9
2017-05-18T10:54:09.776Z,21.8
2017-05-18T10:55:17.865Z,21.9
2017-05-18T10:56:25.970Z,21.9
2017-05-18T10:57:34.041Z,21.8
2017-05-18T10:58:42.131Z,21.9
2017-05-18T10:59:50.213Z,21.9
2017-05-18T11:00:58.301Z,21.9
2017-05-18T11:02:06.388Z,21.9
2017-05-18T11:03:14.474Z,21.9
2017-05-18T11:04:22.563Z,21.9
2017-05-18T11:05:30.658Z,21.9
2017-05-18T11:06:38.740Z,22.0
2017-05-18T11:07:46.829Z,22.0
2017-05-18T11:08:54.912Z,22.0
2017-05-18T11:10:03.000Z,22.0
2017-05-18T11:11:11.083Z,22.0
2017-05-18T11:12:19.174Z,22.0
2017-05-18T11:13:27.260Z,21.9
2017-05-18T11:14:35.349Z,22.0
2017-05-18T11:15:43.435Z,21.9
2017-05-18T11:16:51.523Z,22.0
2017-05-18T11:17:59.610Z,21.9
2017-05-18T11:19:07.702Z,22.0
2017-05-18T11:20:15.784Z,22.0
2017-05-18T11:21:23.878Z,21.9
2017-05-18T11:22:31.968Z,22.0
2017-05-18T11:23:40.054Z,22.0
2017-05-18T11:24:48.142Z,22.1
2017-05-18T11:25:56.226Z,22.1
2017-05-18T11:27:04.317Z,22.0
2017-05-18T11:28:12.412Z,22.1
2017-05-18T11:29:20.493Z,22.0
2017-05-18T11:30:28.580Z,22.1
2017-05-18T11:31:36.663Z,22.0
2017-05-18T11:32:44.751Z,22.1
2017-05-18T11:33:52.839Z,22.2
2017-05-18T11:35:00.928Z,22.1
2017-05-18T11:36:09.013Z,22.1
2017-05-18T11:37:17.102Z,22.1
2017-05-18T11:38:25.192Z,22.1
2017-05-18T11:39:33.275Z,22.1
2017-05-18T11:40:41.361Z,22.2
2017-05-18T11:41:49.450Z,22.1
2017-05-18T11:42:57.537Z,22.1
2017-05-18T11:44:05.624Z,22.2
2017-05-18T11:45:13.712Z,22.2
2017-05-18T11:46:21.804Z,22.2
2017-05-18T11:47:29.886Z,22.2
2017-05-18T11:48:37.975Z,22.2
2017-05-18T11:49:46.061Z,22.2
2017-05-18T11:50:54.149Z,22.2
2017-05-18T11:52:02.314Z,22.3
2017-05-18T11:53:10.332Z,22.2
2017-05-18T11:54:18.412Z,22.3
2017-05-18T11:55:26.500Z,22.3
2017-05-18T11:56:34.587Z,22.3
2017-05-18T11:57:42.674Z,22.2
2017-05-18T11:58:50.763Z,22.2
2017-05-18T11:59:58.849Z,22.2
2017-05-18T12:01:06.938Z,22.3
2017-05-18T12:02:15.024Z,22.3
2017-05-18T12:03:23.114Z,22.3
2017-05-18T12:04:31.201Z,22.3
2017-05-18T12:05:39.288Z,22.3
2017-05-18T12:06:47.376Z,22.3
2017-05-18T12:07:55.461Z,22.3
2017-05-18T12:09:03.548Z,22.3
2017-05-18T12:10:11.636Z,22.4
2017-05-18T12:11:19.722Z,22.4
2017-05-18T12:12:27.811Z,22.4
2017-05-18T12:13:35.896Z,22.4
2017-05-18T12:14:43.996Z,22.4
2017-05-18T12:15:52.080Z,22.4
2017-05-18T12:17:00.169Z,22.4
2017-05-18T12:18:08.258Z,22.4
2017-05-18T12:19:16.348Z,22.4
2017-05-18T12:20:24.616Z,22.4
2017-05-18T12:21:32.555Z,22.5
2017-05-18T12:22:40.633Z,22.5
2017-05-18T12:23:48.751Z,22.4
2017-05-18T12:24:56.780Z,22.5
2017-05-18T12:26:04.867Z,22.5
2017-05-18T12:27:12.952Z,22.5
2017-05-18T12:28:21.042Z,22.4
2017-05-18T12:29:29.133Z,22.5
2017-05-18T12:30:37.241Z,22.4
2017-05-18T12:31:45.304Z,22.5
2017-05-18T12:32:53.394Z,22.5
2017-05-18T12:34:01.482Z,22.5
2017-05-18T12:35:09.567Z,22.6
2017-05-18T12:36:17.656Z,22.5
2017-05-18T12:37:25.748Z,22.5
2017-05-18T12:38:33.877Z,22.5
2017-05-18T12:39:41.918Z,22.4
2017-05-18T12:40:50.006Z,22.5
2017-05-18T12:41:58.094Z,22.6
2017-05-18T12:43:06.186Z,22.5
2017-05-18T12:44:14.270Z,22.5
2017-05-18T12:45:22.356Z,22.5
2017-05-18T12:46:30.442Z,22.6
2017-05-18T12:47:38.855Z,22.5
2017-05-18T12:48:46.621Z,22.5
2017-05-18T12:49:54.706Z,22.5
2017-05-18T12:51:02.795Z,22.5
2017-05-18T12:52:10.884Z,22.5
2017-05-18T12:53:18.979Z,22.6
2017-05-18T12:54:27.058Z,22.5
2017-05-18T12:55:35.145Z,22.5
2017-05-18T12:56:43.231Z,22.5
2017-05-18T12:57:51.320Z,22.5
2017-05-18T12:58:59.407Z,22.5
2017-05-18T13:00:07.493Z,22.5
2017-05-18T13:01:15.582Z,22.5
2017-05-18T13:02:23.669Z,22.5
2017-05-18T13:03:31.760Z,22.5
2017-05-18T13:04:39.854Z,22.6
2017-05-18T13:05:47.933Z,22.6
2017-05-18T13:06:56.019Z,22.5
2017-05-18T13:08:04.107Z,22.6
2017-05-18T13:09:12.197Z,22.6
2017-05-18T13:10:20.282Z,22.6
2017-05-18T13:11:28.371Z,22.5
2017-05-18T13:12:36.458Z,22.5
2017-05-18T13:13:44.546Z,22.5
2017-05-18T13:14:52.668Z,22.6
2017-05-18T13:16:00.727Z,22.5
2017-05-18T13:17:08.863Z,22.6
2017-05-18T13:18:16.904Z,22.6
2017-05-18T13:19:24.994Z,22.6
2017-05-18T13:20:33.080Z,22.6
2017-05-18T13:21:41.168Z,22.5
2017-05-18T13:22:49.254Z,22.6
2017-05-18T13:23:57.340Z,22.6
2017-05-18T13:25:05.427Z,22.5
2017-05-18T13:26:13.516Z,22.6
2017-05-18T13:27:21.603Z,22.6
2017-05-18T13:28:29.690Z,22.6
2017-05-18T13:29:37.778Z,22.6
2017-05-18T13:30:45.866Z,22.6
2017-05-18T13:31:53.954Z,22.6
2017-05-18T13:33:02.043Z,22.6
2017-05-18T13:34:10.141Z,22.6
2017-05-18T13:35:18.215Z,22.6
2017-05-18T13:36:26.304Z,22.6
2017-05-18T13:37:34.397Z,22.6
2017-05-18T13:38:42.480Z,22.6
2017-05-18T13:39:50.566Z,22.6
2017-05-18T13:40:58.657Z,22.6
2017-05-18T13:42:06.741Z,22.6
2017-05-18T13:43:14.831Z,22.6
2017-05-18T13:44:22.916Z,22.6
2017-05-18T13:45:31.005Z,22.6
2017-05-18T13:46:39.092Z,22.6
2017-05-18T13:47:47.179Z,22.6
2017-05-18T13:48:55.274Z,22.6
2017-05-18T13:50:03.362Z,22.7
2017-05-18T13:51:11.449Z,22.6
2017-05-18T13:52:19.535Z,22.7
2017-05-18T13:53:27.621Z,22.6
2017-05-18T13:54:35.713Z,22.6
2017-05-18T13:55:43.798Z,22.6
2017-05-18T13:56:51.887Z,22.6
2017-05-18T13:57:59.973Z,22.6
2017-05-18T13:59:08.061Z,22.6
2017-05-18T14:00:16.149Z,22.6
2017-05-18T14:01:24.236Z,22.7
2017-05-18T14:02:32.322Z,22.6
2017-05-18T14:03:40.410Z,22.7
2017-05-18T14:04:48.498Z,22.8
2017-05-18T14:05:56.586Z,22.7
2017-05-18T14:07:04.675Z,22.6
2017-05-18T14:08:12.769Z,22.8
2017-05-18T14:09:20.850Z,22.8
2017-05-18T14:10:28.940Z,22.8
2017-05-18T14:11:37.025Z,22.8
2017-05-18T14:12:45.113Z,22.8
2017-05-18T14:13:53.201Z,22.8
2017-05-18T14:15:01.287Z,22.7
2017-05-18T14:16:09.375Z,22.8
2017-05-18T14:17:17.463Z,22.7
2017-05-18T14:18:25.552Z,22.8
2017-05-18T14:19:33.647Z,22.8
2017-05-18T14:20:41.726Z,22.8
2017-05-18T14:21:49.866Z,22.8
2017-05-18T14:22:58.132Z,22.7
2017-05-18T14:24:05.987Z,22.7
2017-05-18T14:25:14.105Z,22.7
2017-05-18T14:26:22.163Z,22.8
2017-05-18T14:27:30.250Z,22.8
2017-05-18T14:28:38.341Z,22.8
2017-05-18T14:29:46.426Z,22.8
2017-05-18T14:30:54.517Z,22.8
2017-05-18T14:32:02.607Z,22.8
2017-05-18T14:33:10.688Z,22.8
2017-05-18T14:34:18.774Z,22.7
2017-05-18T14:35:26.864Z,22.8
2017-05-18T14:36:34.958Z,22.8
2017-05-18T14:37:43.047Z,22.7
2017-05-18T14:38:51.143Z,22.8
2017-05-18T14:39:59.222Z,22.8
2017-05-18T14:41:07.308Z,22.8
2017-05-18T14:42:15.443Z,22.8
2017-05-18T14:43:23.483Z,22.8
2017-05-18T14:44:31.572Z,22.8
2017-05-18T14:45:39.660Z,22.8
2017-05-18T14:46:47.753Z,22.8
2017-05-18T14:47:55.837Z,22.8
2017-05-18T14:49:03.925Z,22.8
2017-05-18T14:50:12.014Z,22.8
2017-05-18T14:51:20.097Z,22.8
2017-05-18T14:52:28.185Z,22.8
2017-05-18T14:53:36.271Z,22.8
2017-05-18T14:54:44.362Z,22.8
2017-05-18T14:55:52.450Z,22.7
2017-05-18T14:57:00.538Z,22.8
2017-05-18T14:58:08.625Z,22.7
2017-05-18T14:59:16.712Z,22.9
2017-05-18T15:00:24.799Z,22.8
2017-05-18T15:01:32.886Z,22.8
2017-05-18T15:02:40.974Z,22.8
2017-05-18T15:03:49.066Z,22.8
2017-05-18T15:04:57.147Z,22.7
2017-05-18T15:06:05.238Z,22.8